sensor_id;sensor_type;location;lat;lon;timestamp;pressure;altitude;pressure_sealevel;temperature;humidity
61436;BME280;47304;47.456;19.160;2023-02-02T00:01:00;100056.48;;;3.64;74.44
61436;BME280;47304;47.456;19.160;2023-02-02T00:03:27;100054.42;;;3.65;73.96
61436;BME280;47304;47.456;19.160;2023-02-02T00:05:53;100048.26;;;3.67;73.96
61436;BME280;47304;47.456;19.160;2023-02-02T00:08:20;100042.77;;;3.71;74.08
61436;BME280;47304;47.456;19.160;2023-02-02T00:10:47;100038.71;;;3.74;74.21
61436;BME280;47304;47.456;19.160;2023-02-02T00:13:14;100046.23;;;3.78;73.93
61436;BME280;47304;47.456;19.160;2023-02-02T00:15:40;100052.00;;;3.80;73.65
61436;BME280;47304;47.456;19.160;2023-02-02T00:18:07;100056.05;;;3.83;73.47
61436;BME280;47304;47.456;19.160;2023-02-02T00:20:33;100056.45;;;3.86;73.39
61436;BME280;47304;47.456;19.160;2023-02-02T00:23:00;100054.80;;;3.89;73.38
61436;BME280;47304;47.456;19.160;2023-02-02T00:25:26;100048.26;;;3.92;72.94
61436;BME280;47304;47.456;19.160;2023-02-02T00:27:53;100050.27;;;3.97;72.64
61436;BME280;47304;47.456;19.160;2023-02-02T00:30:19;100049.27;;;3.98;72.66
61436;BME280;47304;47.456;19.160;2023-02-02T00:32:46;100045.70;;;4.01;71.85
61436;BME280;47304;47.456;19.160;2023-02-02T00:35:14;100042.64;;;4.04;71.56
61436;BME280;47304;47.456;19.160;2023-02-02T00:37:41;100040.42;;;4.07;71.75
61436;BME280;47304;47.456;19.160;2023-02-02T00:40:08;100025.91;;;4.09;71.47
61436;BME280;47304;47.456;19.160;2023-02-02T00:42:35;100001.00;;;4.12;70.98
61436;BME280;47304;47.456;19.160;2023-02-02T00:45:03;99973.63;;;4.13;71.03
61436;BME280;47304;47.456;19.160;2023-02-02T00:47:30;99976.64;;;4.16;71.20
61436;BME280;47304;47.456;19.160;2023-02-02T00:49:57;99980.83;;;4.17;70.91
61436;BME280;47304;47.456;19.160;2023-02-02T00:52:23;99976.88;;;4.19;70.41
61436;BME280;47304;47.456;19.160;2023-02-02T00:54:50;99973.23;;;4.19;70.51
61436;BME280;47304;47.456;19.160;2023-02-02T00:57:16;99993.69;;;4.19;70.51
61436;BME280;47304;47.456;19.160;2023-02-02T00:59:43;100006.52;;;4.19;70.53
61436;BME280;47304;47.456;19.160;2023-02-02T01:02:10;100012.05;;;4.18;70.31
61436;BME280;47304;47.456;19.160;2023-02-02T01:04:37;100016.39;;;4.18;70.49
61436;BME280;47304;47.456;19.160;2023-02-02T01:07:04;100016.59;;;4.20;69.89
61436;BME280;47304;47.456;19.160;2023-02-02T01:09:31;100016.29;;;4.22;69.73
61436;BME280;47304;47.456;19.160;2023-02-02T01:11:57;100020.84;;;4.24;69.83
61436;BME280;47304;47.456;19.160;2023-02-02T01:14:24;100022.92;;;4.25;68.97
61436;BME280;47304;47.456;19.160;2023-02-02T01:16:51;100018.46;;;4.28;69.17
61436;BME280;47304;47.456;19.160;2023-02-02T01:19:18;100004.63;;;4.29;68.20
61436;BME280;47304;47.456;19.160;2023-02-02T01:21:44;100002.39;;;4.30;68.24
61436;BME280;47304;47.456;19.160;2023-02-02T01:24:11;100001.84;;;4.29;67.55
61436;BME280;47304;47.456;19.160;2023-02-02T01:26:37;99999.77;;;4.28;67.85
61436;BME280;47304;47.456;19.160;2023-02-02T01:29:04;100007.52;;;4.26;67.94
61436;BME280;47304;47.456;19.160;2023-02-02T01:31:31;100009.05;;;4.24;68.06
61436;BME280;47304;47.456;19.160;2023-02-02T01:33:57;100017.13;;;4.21;68.13
61436;BME280;47304;47.456;19.160;2023-02-02T01:36:24;100032.82;;;4.16;68.50
61436;BME280;47304;47.456;19.160;2023-02-02T01:38:50;100037.25;;;4.13;68.66
61436;BME280;47304;47.456;19.160;2023-02-02T01:41:23;100035.59;;;4.08;68.60
61436;BME280;47304;47.456;19.160;2023-02-02T01:43:59;100035.19;;;4.05;68.85
61436;BME280;47304;47.456;19.160;2023-02-02T01:46:33;100030.60;;;4.01;68.86
61436;BME280;47304;47.456;19.160;2023-02-02T01:51:32;100022.57;;;3.90;68.79
61436;BME280;47304;47.456;19.160;2023-02-02T01:54:00;100008.30;;;3.87;68.85
61436;BME280;47304;47.456;19.160;2023-02-02T01:56:34;99989.19;;;3.85;68.98
61436;BME280;47304;47.456;19.160;2023-02-02T01:59:02;99975.09;;;3.81;68.80
61436;BME280;47304;47.456;19.160;2023-02-02T02:01:30;99979.38;;;3.79;68.81
61436;BME280;47304;47.456;19.160;2023-02-02T02:03:57;99981.61;;;3.79;68.79
61436;BME280;47304;47.456;19.160;2023-02-02T02:06:24;99974.66;;;3.78;68.34
61436;BME280;47304;47.456;19.160;2023-02-02T02:08:55;99965.30;;;3.77;67.77
61436;BME280;47304;47.456;19.160;2023-02-02T02:11:23;99953.87;;;3.78;67.72
61436;BME280;47304;47.456;19.160;2023-02-02T02:13:54;99949.73;;;3.79;67.89
61436;BME280;47304;47.456;19.160;2023-02-02T02:40:37;99950.16;;;3.74;69.57
61436;BME280;47304;47.456;19.160;2023-02-02T02:43:13;99972.97;;;3.71;69.92
61436;BME280;47304;47.456;19.160;2023-02-02T02:45:42;99967.14;;;3.66;70.27
61436;BME280;47304;47.456;19.160;2023-02-02T02:48:09;99977.62;;;3.62;70.42
61436;BME280;47304;47.456;19.160;2023-02-02T02:50:36;99971.15;;;3.59;70.48
61436;BME280;47304;47.456;19.160;2023-02-02T02:53:13;99977.17;;;3.57;70.60
61436;BME280;47304;47.456;19.160;2023-02-02T03:06:41;99975.48;;;3.43;71.44
61436;BME280;47304;47.456;19.160;2023-02-02T03:09:14;99975.75;;;3.39;71.65
61436;BME280;47304;47.456;19.160;2023-02-02T03:11:42;99969.61;;;3.35;72.29
61436;BME280;47304;47.456;19.160;2023-02-02T03:14:09;99969.86;;;3.32;72.29
61436;BME280;47304;47.456;19.160;2023-02-02T03:16:36;99968.59;;;3.29;72.47
61436;BME280;47304;47.456;19.160;2023-02-02T03:19:02;99961.20;;;3.24;72.94
61436;BME280;47304;47.456;19.160;2023-02-02T03:21:30;99954.55;;;3.21;73.03
61436;BME280;47304;47.456;19.160;2023-02-02T03:23:57;99960.02;;;3.17;73.46
61436;BME280;47304;47.456;19.160;2023-02-02T03:26:24;99954.59;;;3.15;73.53
61436;BME280;47304;47.456;19.160;2023-02-02T03:28:52;99946.56;;;3.12;73.64
61436;BME280;47304;47.456;19.160;2023-02-02T03:31:20;99967.59;;;3.08;74.23
61436;BME280;47304;47.456;19.160;2023-02-02T03:33:47;99980.02;;;3.06;73.96
61436;BME280;47304;47.456;19.160;2023-02-02T03:36:13;99977.89;;;3.04;74.44
61436;BME280;47304;47.456;19.160;2023-02-02T03:38:40;99980.45;;;3.02;74.61
61436;BME280;47304;47.456;19.160;2023-02-02T03:41:06;99976.77;;;3.01;74.63
61436;BME280;47304;47.456;19.160;2023-02-02T03:43:33;99967.52;;;2.98;74.83
61436;BME280;47304;47.456;19.160;2023-02-02T03:46:02;99975.61;;;2.95;74.67
61436;BME280;47304;47.456;19.160;2023-02-02T03:48:29;99969.47;;;2.92;74.77
61436;BME280;47304;47.456;19.160;2023-02-02T03:50:56;99973.07;;;2.90;74.54
61436;BME280;47304;47.456;19.160;2023-02-02T03:53:23;99982.66;;;2.87;74.83
61436;BME280;47304;47.456;19.160;2023-02-02T03:55:50;99992.30;;;2.85;74.51
61436;BME280;47304;47.456;19.160;2023-02-02T03:58:16;99997.10;;;2.83;74.58
61436;BME280;47304;47.456;19.160;2023-02-02T04:00:43;99990.29;;;2.80;74.39
61436;BME280;47304;47.456;19.160;2023-02-02T04:03:09;99990.23;;;2.78;74.41
61436;BME280;47304;47.456;19.160;2023-02-02T04:05:36;99983.41;;;2.75;74.52
61436;BME280;47304;47.456;19.160;2023-02-02T04:08:02;99971.58;;;2.72;74.57
61436;BME280;47304;47.456;19.160;2023-02-02T04:10:29;99978.09;;;2.70;74.47
61436;BME280;47304;47.456;19.160;2023-02-02T04:12:56;99974.02;;;2.66;74.43
61436;BME280;47304;47.456;19.160;2023-02-02T04:15:22;99972.59;;;2.64;74.50
61436;BME280;47304;47.456;19.160;2023-02-02T04:17:49;99971.16;;;2.62;74.46
61436;BME280;47304;47.456;19.160;2023-02-02T04:20:16;99981.61;;;2.58;74.58
61436;BME280;47304;47.456;19.160;2023-02-02T04:22:42;99995.75;;;2.57;74.27
61436;BME280;47304;47.456;19.160;2023-02-02T04:25:09;99998.29;;;2.54;74.31
61436;BME280;47304;47.456;19.160;2023-02-02T04:27:35;100010.48;;;2.52;74.29
61436;BME280;47304;47.456;19.160;2023-02-02T04:30:02;100018.58;;;2.50;74.12
61436;BME280;47304;47.456;19.160;2023-02-02T04:32:29;100025.30;;;2.49;74.04
61436;BME280;47304;47.456;19.160;2023-02-02T04:34:55;100024.60;;;2.49;74.06
61436;BME280;47304;47.456;19.160;2023-02-02T04:37:22;100028.27;;;2.50;74.03
61436;BME280;47304;47.456;19.160;2023-02-02T04:39:48;100026.42;;;2.53;73.75
61436;BME280;47304;47.456;19.160;2023-02-02T04:42:15;100029.77;;;2.55;73.77
61436;BME280;47304;47.456;19.160;2023-02-02T04:44:41;100028.43;;;2.57;73.62
61436;BME280;47304;47.456;19.160;2023-02-02T04:47:08;100031.04;;;2.57;73.51
61436;BME280;47304;47.456;19.160;2023-02-02T04:49:34;100027.75;;;2.57;73.52
61436;BME280;47304;47.456;19.160;2023-02-02T04:52:01;100035.85;;;2.56;73.42
61436;BME280;47304;47.456;19.160;2023-02-02T04:54:27;100034.27;;;2.56;73.35
61436;BME280;47304;47.456;19.160;2023-02-02T04:56:54;100032.89;;;2.55;73.33
61436;BME280;47304;47.456;19.160;2023-02-02T04:59:20;100034.98;;;2.56;73.31
61436;BME280;47304;47.456;19.160;2023-02-02T05:01:47;100032.20;;;2.56;73.23
61436;BME280;47304;47.456;19.160;2023-02-02T05:04:13;100025.58;;;2.53;73.08
61436;BME280;47304;47.456;19.160;2023-02-02T05:06:40;100033.28;;;2.50;72.95
61436;BME280;47304;47.456;19.160;2023-02-02T05:09:06;100028.04;;;2.48;72.97
61436;BME280;47304;47.456;19.160;2023-02-02T05:11:33;100028.33;;;2.47;72.92
61436;BME280;47304;47.456;19.160;2023-02-02T05:13:59;100037.97;;;2.45;72.93
61436;BME280;47304;47.456;19.160;2023-02-02T05:16:26;100033.59;;;2.43;72.76
61436;BME280;47304;47.456;19.160;2023-02-02T05:18:55;100037.36;;;2.42;72.74
61436;BME280;47304;47.456;19.160;2023-02-02T05:21:22;100034.25;;;2.41;72.47
61436;BME280;47304;47.456;19.160;2023-02-02T05:23:49;100036.98;;;2.41;72.48
61436;BME280;47304;47.456;19.160;2023-02-02T05:26:20;100038.73;;;2.40;72.63
61436;BME280;47304;47.456;19.160;2023-02-02T05:28:47;100039.23;;;2.40;72.32
61436;BME280;47304;47.456;19.160;2023-02-02T05:31:14;100046.63;;;2.39;72.50
61436;BME280;47304;47.456;19.160;2023-02-02T05:33:41;100052.14;;;2.38;72.45
61436;BME280;47304;47.456;19.160;2023-02-02T05:36:08;100044.58;;;2.40;72.42
61436;BME280;47304;47.456;19.160;2023-02-02T05:38:34;100039.39;;;2.39;72.29
61436;BME280;47304;47.456;19.160;2023-02-02T05:41:01;100034.34;;;2.38;72.50
61436;BME280;47304;47.456;19.160;2023-02-02T05:43:29;100028.58;;;2.36;72.44
61436;BME280;47304;47.456;19.160;2023-02-02T05:45:56;100033.50;;;2.33;72.48
61436;BME280;47304;47.456;19.160;2023-02-02T05:48:23;100022.71;;;2.30;72.44
61436;BME280;47304;47.456;19.160;2023-02-02T05:51:01;100014.34;;;2.27;72.20
61436;BME280;47304;47.456;19.160;2023-02-02T05:53:30;100006.69;;;2.26;71.89
61436;BME280;47304;47.456;19.160;2023-02-02T05:55:56;100009.52;;;2.28;71.75
61436;BME280;47304;47.456;19.160;2023-02-02T05:58:23;100006.55;;;2.27;71.60
61436;BME280;47304;47.456;19.160;2023-02-02T06:00:50;100010.06;;;2.29;71.14
61436;BME280;47304;47.456;19.160;2023-02-02T06:03:16;100019.17;;;2.33;70.89
61436;BME280;47304;47.456;19.160;2023-02-02T06:05:43;100016.85;;;2.37;70.76
61436;BME280;47304;47.456;19.160;2023-02-02T06:08:09;100018.80;;;2.39;70.73
61436;BME280;47304;47.456;19.160;2023-02-02T06:10:42;100026.59;;;2.40;70.50
61436;BME280;47304;47.456;19.160;2023-02-02T06:13:09;100033.89;;;2.41;70.43
61436;BME280;47304;47.456;19.160;2023-02-02T06:15:35;100043.23;;;2.42;70.12
61436;BME280;47304;47.456;19.160;2023-02-02T06:18:03;100041.68;;;2.41;70.26
61436;BME280;47304;47.456;19.160;2023-02-02T06:20:30;100046.16;;;2.41;70.12
61436;BME280;47304;47.456;19.160;2023-02-02T06:22:56;100047.55;;;2.41;70.13
61436;BME280;47304;47.456;19.160;2023-02-02T06:25:23;100043.72;;;2.40;70.08
61436;BME280;47304;47.456;19.160;2023-02-02T06:27:54;100043.04;;;2.40;70.14
61436;BME280;47304;47.456;19.160;2023-02-02T06:30:21;100035.92;;;2.40;70.01
61436;BME280;47304;47.456;19.160;2023-02-02T06:32:47;100038.71;;;2.40;70.19
61436;BME280;47304;47.456;19.160;2023-02-02T06:35:14;100037.44;;;2.38;69.99
61436;BME280;47304;47.456;19.160;2023-02-02T06:37:41;100040.24;;;2.39;70.07
61436;BME280;47304;47.456;19.160;2023-02-02T06:40:08;100049.23;;;2.39;70.17
61436;BME280;47304;47.456;19.160;2023-02-02T06:42:35;100056.98;;;2.38;70.14
61436;BME280;47304;47.456;19.160;2023-02-02T06:45:03;100064.13;;;2.40;70.22
61436;BME280;47304;47.456;19.160;2023-02-02T06:47:32;100067.98;;;2.42;70.03
61436;BME280;47304;47.456;19.160;2023-02-02T06:49:58;100075.67;;;2.45;70.12
61436;BME280;47304;47.456;19.160;2023-02-02T06:52:25;100076.06;;;2.46;70.01
61436;BME280;47304;47.456;19.160;2023-02-02T06:54:52;100072.18;;;2.50;69.89
61436;BME280;47304;47.456;19.160;2023-02-02T06:57:18;100076.62;;;2.54;69.78
61436;BME280;47304;47.456;19.160;2023-02-02T06:59:45;100079.32;;;2.58;69.85
61436;BME280;47304;47.456;19.160;2023-02-02T07:02:12;100081.61;;;2.60;69.87
61436;BME280;47304;47.456;19.160;2023-02-02T07:04:38;100088.08;;;2.62;69.70
61436;BME280;47304;47.456;19.160;2023-02-02T07:07:05;100089.24;;;2.67;69.63
61436;BME280;47304;47.456;19.160;2023-02-02T07:09:32;100088.98;;;2.71;69.46
61436;BME280;47304;47.456;19.160;2023-02-02T07:11:59;100094.67;;;2.76;69.25
61436;BME280;47304;47.456;19.160;2023-02-02T07:14:26;100093.94;;;2.81;68.89
61436;BME280;47304;47.456;19.160;2023-02-02T07:16:52;100097.52;;;2.86;68.78
61436;BME280;47304;47.456;19.160;2023-02-02T07:19:21;100096.96;;;2.90;68.46
61436;BME280;47304;47.456;19.160;2023-02-02T07:21:48;100091.84;;;2.93;68.10
61436;BME280;47304;47.456;19.160;2023-02-02T07:24:14;100093.36;;;2.99;68.02
61436;BME280;47304;47.456;19.160;2023-02-02T07:26:41;100080.15;;;3.04;67.82
61436;BME280;47304;47.456;19.160;2023-02-02T07:29:11;100074.04;;;3.08;67.81
61436;BME280;47304;47.456;19.160;2023-02-02T07:31:37;100076.73;;;3.12;67.60
61436;BME280;47304;47.456;19.160;2023-02-02T07:34:04;100078.42;;;3.17;67.39
61436;BME280;47304;47.456;19.160;2023-02-02T07:36:31;100087.02;;;3.22;67.11
61436;BME280;47304;47.456;19.160;2023-02-02T07:38:57;100094.41;;;3.26;67.15
61436;BME280;47304;47.456;19.160;2023-02-02T07:41:24;100104.09;;;3.33;67.16
61436;BME280;47304;47.456;19.160;2023-02-02T07:43:51;100107.38;;;3.40;66.90
61436;BME280;47304;47.456;19.160;2023-02-02T07:46:18;100119.16;;;3.48;66.87
61436;BME280;47304;47.456;19.160;2023-02-02T07:48:45;100123.86;;;3.56;66.68
61436;BME280;47304;47.456;19.160;2023-02-02T07:51:14;100120.91;;;3.63;66.10
61436;BME280;47304;47.456;19.160;2023-02-02T07:53:46;100116.74;;;3.70;66.07
61436;BME280;47304;47.456;19.160;2023-02-02T07:56:13;100114.02;;;3.79;66.13
61436;BME280;47304;47.456;19.160;2023-02-02T07:58:41;100115.42;;;3.88;65.42
61436;BME280;47304;47.456;19.160;2023-02-02T08:01:09;100113.90;;;3.97;65.07
61436;BME280;47304;47.456;19.160;2023-02-02T08:03:37;100115.11;;;4.05;64.23
61436;BME280;47304;47.456;19.160;2023-02-02T08:08:45;100114.36;;;4.19;64.11
61436;BME280;47304;47.456;19.160;2023-02-02T08:11:14;100112.90;;;4.32;64.41
61436;BME280;47304;47.456;19.160;2023-02-02T08:13:41;100113.72;;;4.47;63.35
61436;BME280;47304;47.456;19.160;2023-02-02T08:16:09;100115.70;;;4.69;63.03
61436;BME280;47304;47.456;19.160;2023-02-02T08:18:36;100116.16;;;4.92;62.74
61436;BME280;47304;47.456;19.160;2023-02-02T08:21:05;100122.09;;;5.14;62.12
61436;BME280;47304;47.456;19.160;2023-02-02T08:23:32;100125.02;;;5.31;61.69
61436;BME280;47304;47.456;19.160;2023-02-02T08:26:29;100127.78;;;5.41;59.67
61436;BME280;47304;47.456;19.160;2023-02-02T08:28:58;100131.08;;;5.52;60.08
61436;BME280;47304;47.456;19.160;2023-02-02T08:31:31;100128.33;;;5.64;58.96
61436;BME280;47304;47.456;19.160;2023-02-02T08:33:58;100124.80;;;5.85;58.28
61436;BME280;47304;47.456;19.160;2023-02-02T08:36:26;100126.08;;;6.11;56.67
61436;BME280;47304;47.456;19.160;2023-02-02T08:38:53;100127.42;;;6.48;55.87
61436;BME280;47304;47.456;19.160;2023-02-02T08:41:22;100132.02;;;6.67;55.19
61436;BME280;47304;47.456;19.160;2023-02-02T08:43:50;100140.11;;;6.75;55.30
61436;BME280;47304;47.456;19.160;2023-02-02T08:46:18;100146.09;;;6.79;54.19
61436;BME280;47304;47.456;19.160;2023-02-02T08:48:46;100151.77;;;6.74;53.58
61436;BME280;47304;47.456;19.160;2023-02-02T08:51:15;100156.84;;;6.62;54.15
61436;BME280;47304;47.456;19.160;2023-02-02T08:53:42;100159.80;;;6.47;52.91
61436;BME280;47304;47.456;19.160;2023-02-02T08:56:13;100160.66;;;6.35;53.94
61436;BME280;47304;47.456;19.160;2023-02-02T08:58:45;100169.60;;;6.26;54.08
61436;BME280;47304;47.456;19.160;2023-02-02T09:01:14;100171.55;;;6.17;53.48
61436;BME280;47304;47.456;19.160;2023-02-02T09:03:41;100182.33;;;6.15;54.38
61436;BME280;47304;47.456;19.160;2023-02-02T09:06:11;100189.42;;;6.26;54.42
61436;BME280;47304;47.456;19.160;2023-02-02T09:08:38;100192.61;;;6.30;53.86
61436;BME280;47304;47.456;19.160;2023-02-02T09:11:10;100196.17;;;6.34;54.49
61436;BME280;47304;47.456;19.160;2023-02-02T09:13:55;100195.58;;;6.43;54.14
61436;BME280;47304;47.456;19.160;2023-02-02T09:16:23;100189.54;;;6.46;53.29
61436;BME280;47304;47.456;19.160;2023-02-02T09:18:50;100191.67;;;6.37;52.70
61436;BME280;47304;47.456;19.160;2023-02-02T09:21:18;100192.95;;;6.28;53.85
61436;BME280;47304;47.456;19.160;2023-02-02T09:23:46;100186.13;;;6.26;53.95
61436;BME280;47304;47.456;19.160;2023-02-02T09:26:16;100188.21;;;6.26;53.55
61436;BME280;47304;47.456;19.160;2023-02-02T09:28:46;100187.04;;;6.29;53.21
61436;BME280;47304;47.456;19.160;2023-02-02T09:31:12;100190.09;;;6.37;53.55
61436;BME280;47304;47.456;19.160;2023-02-02T09:33:39;100191.51;;;6.37;53.20
61436;BME280;47304;47.456;19.160;2023-02-02T09:38:40;100192.83;;;6.32;52.89
61436;BME280;47304;47.456;19.160;2023-02-02T09:41:18;100192.36;;;6.36;52.96
61436;BME280;47304;47.456;19.160;2023-02-02T09:43:51;100184.98;;;6.43;52.70
61436;BME280;47304;47.456;19.160;2023-02-02T09:49:08;100184.48;;;6.58;52.44
61436;BME280;47304;47.456;19.160;2023-02-02T09:51:41;100180.14;;;6.73;51.43
61436;BME280;47304;47.456;19.160;2023-02-02T09:54:26;100181.39;;;6.91;52.40
61436;BME280;47304;47.456;19.160;2023-02-02T09:56:55;100181.41;;;7.09;51.09
61436;BME280;47304;47.456;19.160;2023-02-02T09:59:30;100181.77;;;7.11;50.30
61436;BME280;47304;47.456;19.160;2023-02-02T10:02:10;100177.45;;;7.15;50.92
61436;BME280;47304;47.456;19.160;2023-02-02T10:04:41;100186.09;;;7.23;50.14
61436;BME280;47304;47.456;19.160;2023-02-02T10:07:18;100183.54;;;7.30;49.49
61436;BME280;47304;47.456;19.160;2023-02-02T10:09:54;100181.09;;;7.29;49.13
61436;BME280;47304;47.456;19.160;2023-02-02T10:12:51;100177.78;;;7.29;49.29
61436;BME280;47304;47.456;19.160;2023-02-02T10:15:34;100178.81;;;7.27;49.38
61436;BME280;47304;47.456;19.160;2023-02-02T10:20:47;100174.34;;;7.16;49.03
61436;BME280;47304;47.456;19.160;2023-02-02T10:23:32;100171.92;;;7.19;49.53
61436;BME280;47304;47.456;19.160;2023-02-02T10:27:07;100171.42;;;7.38;49.31
61436;BME280;47304;47.456;19.160;2023-02-02T10:32:20;100150.95;;;8.23;47.06
61436;BME280;47304;47.456;19.160;2023-02-02T10:43:26;100122.96;;;20.83;28.58
61436;BME280;47304;47.456;19.160;2023-02-02T10:45:56;100127.24;;;23.80;25.70
61436;BME280;47304;47.456;19.160;2023-02-02T10:48:27;100127.71;;;25.68;21.14
61436;BME280;47304;47.456;19.160;2023-02-02T10:50:57;100120.95;;;26.89;20.83
61436;BME280;47304;47.456;19.160;2023-02-02T10:53:27;100127.67;;;27.20;19.48
61436;BME280;47304;47.456;19.160;2023-02-02T10:56:09;100128.70;;;27.53;19.06
61436;BME280;47304;47.456;19.160;2023-02-02T10:58:43;100126.08;;;28.91;17.96
61436;BME280;47304;47.456;19.160;2023-02-02T11:01:12;100127.98;;;29.32;16.48
61436;BME280;47304;47.456;19.160;2023-02-02T11:03:39;100129.31;;;28.32;17.02
61436;BME280;47304;47.456;19.160;2023-02-02T11:06:06;100124.54;;;28.97;16.79
61436;BME280;47304;47.456;19.160;2023-02-02T11:08:39;100130.10;;;29.46;16.64
61436;BME280;47304;47.456;19.160;2023-02-02T11:11:20;100129.23;;;29.39;16.62
61436;BME280;47304;47.456;19.160;2023-02-02T11:16:37;100140.26;;;26.26;18.71
61436;BME280;47304;47.456;19.160;2023-02-02T11:21:47;100146.78;;;22.36;21.36
61436;BME280;47304;47.456;19.160;2023-02-02T11:27:00;100148.39;;;19.37;24.83
61436;BME280;47304;47.456;19.160;2023-02-02T11:29:33;100147.33;;;18.18;26.24
61436;BME280;47304;47.456;19.160;2023-02-02T11:37:31;100158.80;;;15.68;30.41
61436;BME280;47304;47.456;19.160;2023-02-02T11:42:45;100171.46;;;13.81;32.86
61436;BME280;47304;47.456;19.160;2023-02-02T11:45:17;100171.73;;;13.04;34.26
61436;BME280;47304;47.456;19.160;2023-02-02T11:47:45;100169.02;;;13.10;34.56
61436;BME280;47304;47.456;19.160;2023-02-02T11:50:23;100170.44;;;12.96;34.91
61436;BME280;47304;47.456;19.160;2023-02-02T11:52:52;100168.56;;;12.32;36.05
61436;BME280;47304;47.456;19.160;2023-02-02T11:55:28;100171.94;;;11.70;37.07
61436;BME280;47304;47.456;19.160;2023-02-02T11:58:27;100173.92;;;11.10;38.36
61436;BME280;47304;47.456;19.160;2023-02-02T12:01:00;100171.55;;;10.49;39.51
61436;BME280;47304;47.456;19.160;2023-02-02T12:03:33;100174.08;;;10.06;40.30
61436;BME280;47304;47.456;19.160;2023-02-02T12:06:00;100179.17;;;9.70;41.06
61436;BME280;47304;47.456;19.160;2023-02-02T12:08:42;100176.70;;;9.38;41.73
61436;BME280;47304;47.456;19.160;2023-02-02T12:22:12;100166.00;;;8.57;43.98
61436;BME280;47304;47.456;19.160;2023-02-02T12:24:57;100160.14;;;8.42;44.85
61436;BME280;47304;47.456;19.160;2023-02-02T12:27:46;100164.73;;;8.20;45.31
61436;BME280;47304;47.456;19.160;2023-02-02T12:39:19;100169.80;;;7.32;47.75
61436;BME280;47304;47.456;19.160;2023-02-02T13:02:02;100164.10;;;6.57;49.87
61436;BME280;47304;47.456;19.160;2023-02-02T13:12:40;100172.13;;;6.33;50.75
61436;BME280;47304;47.456;19.160;2023-02-02T13:15:12;100181.14;;;6.31;50.96
61436;BME280;47304;47.456;19.160;2023-02-02T13:17:49;100183.52;;;6.26;50.83
61436;BME280;47304;47.456;19.160;2023-02-02T13:22:49;100182.08;;;6.22;51.29
61436;BME280;47304;47.456;19.160;2023-02-02T13:25:26;100186.74;;;6.20;51.46
61436;BME280;47304;47.456;19.160;2023-02-02T13:27:55;100190.20;;;6.19;51.59
61436;BME280;47304;47.456;19.160;2023-02-02T13:30:31;100188.42;;;6.17;51.57
61436;BME280;47304;47.456;19.160;2023-02-02T13:33:08;100189.98;;;6.15;51.91
61436;BME280;47304;47.456;19.160;2023-02-02T13:35:51;100194.50;;;6.15;51.89
61436;BME280;47304;47.456;19.160;2023-02-02T13:38:27;100189.04;;;6.10;51.68
61436;BME280;47304;47.456;19.160;2023-02-02T13:40:57;100195.27;;;6.08;51.82
61436;BME280;47304;47.456;19.160;2023-02-02T13:46:02;100194.77;;;6.10;52.37
61436;BME280;47304;47.456;19.160;2023-02-02T13:48:38;100196.50;;;6.10;52.45
61436;BME280;47304;47.456;19.160;2023-02-02T13:54:13;100208.96;;;6.05;52.52
61436;BME280;47304;47.456;19.160;2023-02-02T13:59:46;100208.54;;;6.01;53.13
61436;BME280;47304;47.456;19.160;2023-02-02T14:02:28;100203.40;;;5.96;53.25
61436;BME280;47304;47.456;19.160;2023-02-02T14:04:59;100207.52;;;5.93;53.60
61436;BME280;47304;47.456;19.160;2023-02-02T14:07:35;100212.52;;;5.89;53.67
61436;BME280;47304;47.456;19.160;2023-02-02T14:10:21;100210.56;;;5.87;53.68
61436;BME280;47304;47.456;19.160;2023-02-02T14:12:48;100204.68;;;5.89;53.86
61436;BME280;47304;47.456;19.160;2023-02-02T14:15:15;100201.77;;;5.92;53.72
61436;BME280;47304;47.456;19.160;2023-02-02T14:20:44;100195.05;;;5.95;53.87
61436;BME280;47304;47.456;19.160;2023-02-02T14:23:50;100198.36;;;5.97;53.80
61436;BME280;47304;47.456;19.160;2023-02-02T14:26:19;100199.05;;;5.96;53.73
61436;BME280;47304;47.456;19.160;2023-02-02T14:31:54;100206.38;;;5.98;53.66
61436;BME280;47304;47.456;19.160;2023-02-02T14:47:56;100222.17;;;5.85;53.98
61436;BME280;47304;47.456;19.160;2023-02-02T14:50:31;100217.95;;;5.82;53.94
61436;BME280;47304;47.456;19.160;2023-02-02T14:53:24;100221.38;;;5.79;54.10
61436;BME280;47304;47.456;19.160;2023-02-02T14:56:02;100222.90;;;5.77;54.20
61436;BME280;47304;47.456;19.160;2023-02-02T14:58:33;100223.92;;;5.75;54.36
61436;BME280;47304;47.456;19.160;2023-02-02T15:06:46;100242.10;;;5.71;54.34
61436;BME280;47304;47.456;19.160;2023-02-02T15:17:37;100247.24;;;5.68;54.34
61436;BME280;47304;47.456;19.160;2023-02-02T15:25:39;100252.48;;;5.59;54.57
61436;BME280;47304;47.456;19.160;2023-02-02T15:28:12;100252.27;;;5.56;54.50
61436;BME280;47304;47.456;19.160;2023-02-02T15:30:45;100261.59;;;5.53;54.65
61436;BME280;47304;47.456;19.160;2023-02-02T15:33:28;100258.77;;;5.51;54.65
61436;BME280;47304;47.456;19.160;2023-02-02T15:35:58;100257.16;;;5.48;54.98
61436;BME280;47304;47.456;19.160;2023-02-02T15:38:31;100262.70;;;5.46;55.20
61436;BME280;47304;47.456;19.160;2023-02-02T15:41:06;100267.15;;;5.44;55.37
61436;BME280;47304;47.456;19.160;2023-02-02T15:43:37;100272.83;;;5.40;55.52
61436;BME280;47304;47.456;19.160;2023-02-02T15:46:08;100275.20;;;5.37;55.56
61436;BME280;47304;47.456;19.160;2023-02-02T15:48:36;100279.31;;;5.35;55.73
61436;BME280;47304;47.456;19.160;2023-02-02T15:51:05;100281.37;;;5.33;55.91
61436;BME280;47304;47.456;19.160;2023-02-02T15:58:52;100285.65;;;5.21;56.87
61436;BME280;47304;47.456;19.160;2023-02-02T16:01:21;100287.27;;;5.15;57.18
61436;BME280;47304;47.456;19.160;2023-02-02T16:06:33;100287.58;;;5.04;57.61